createdAt,value
2019-03-29T00:03:41.473Z,16.77
2019-03-29T00:08:50.305Z,16.60
2019-03-29T00:14:00.155Z,15.10
2019-03-29T00:19:07.694Z,15.70
2019-03-29T00:24:15.248Z,14.90
2019-03-29T00:29:24.715Z,15.43
2019-03-29T00:34:34.684Z,15.10
2019-03-29T00:39:43.823Z,14.30
2019-03-29T00:44:51.264Z,15.47
2019-03-29T00:49:58.755Z,14.70
2019-03-29T00:55:07.674Z,14.20
2019-03-29T01:00:15.830Z,15.40
2019-03-29T01:05:23.737Z,15.00
2019-03-29T01:10:33.485Z,14.37
2019-03-29T01:15:42.714Z,13.67
2019-03-29T01:20:51.383Z,13.27
2019-03-29T01:25:58.073Z,12.63
2019-03-29T01:31:05.178Z,12.63
2019-03-29T01:36:13.900Z,12.27
2019-03-29T01:41:21.702Z,13.10
2019-03-29T01:46:29.992Z,13.53
2019-03-29T01:51:36.732Z,13.00
2019-03-29T01:56:46.772Z,13.33
2019-03-29T02:01:54.940Z,12.83
2019-03-29T02:07:01.046Z,13.77
2019-03-29T02:12:07.369Z,13.07
2019-03-29T02:17:14.051Z,13.77
2019-03-29T02:22:20.043Z,15.83
2019-03-29T02:27:26.438Z,15.40
2019-03-29T02:32:33.325Z,16.10
2019-03-29T02:37:39.374Z,17.67
2019-03-29T02:42:46.287Z,18.67
2019-03-29T02:47:52.821Z,20.40
2019-03-29T02:53:16.004Z,22.47
2019-03-29T02:58:23.760Z,20.10
2019-03-29T03:03:29.812Z,20.20
2019-03-29T03:08:37.180Z,19.70
2019-03-29T03:13:44.014Z,22.73
2019-03-29T03:18:50.108Z,19.80
2019-03-29T03:23:57.896Z,22.80
2019-03-29T03:29:06.236Z,17.83
2019-03-29T03:34:13.752Z,19.43
2019-03-29T03:39:31.317Z,18.63
2019-03-29T03:44:30.187Z,17.80
2019-03-29T03:49:38.289Z,19.83
2019-03-29T03:54:45.309Z,17.53
2019-03-29T03:59:53.942Z,18.87
2019-03-29T04:05:01.634Z,17.63
2019-03-29T04:10:08.900Z,18.87
2019-03-29T04:15:15.705Z,17.23
2019-03-29T04:20:22.485Z,17.37
2019-03-29T04:25:28.457Z,16.70
2019-03-29T04:30:34.547Z,15.83
2019-03-29T04:35:40.639Z,14.70
2019-03-29T04:40:46.608Z,14.13
2019-03-29T04:45:52.576Z,14.80
2019-03-29T04:50:58.577Z,19.10
2019-03-29T04:56:05.418Z,23.43
2019-03-29T05:01:12.305Z,17.60
2019-03-29T05:06:19.220Z,17.33
2019-03-29T05:11:26.425Z,18.60
2019-03-29T05:16:32.392Z,17.23
2019-03-29T05:21:38.352Z,17.60
2019-03-29T05:26:45.483Z,18.20
2019-03-29T05:31:55.057Z,16.17
2019-03-29T05:37:01.918Z,16.53
2019-03-29T05:42:08.423Z,18.33
2019-03-29T05:47:14.491Z,18.83
2019-03-29T05:52:21.272Z,17.13
2019-03-29T05:57:27.539Z,19.13
2019-03-29T06:02:33.537Z,24.57
2019-03-29T06:07:40.432Z,23.13
2019-03-29T06:12:47.515Z,21.80
2019-03-29T06:17:55.619Z,20.77
2019-03-29T06:23:01.574Z,19.97
2019-03-29T06:28:07.582Z,20.97
2019-03-29T06:33:14.383Z,20.57
2019-03-29T06:38:24.153Z,20.03
2019-03-29T06:43:30.122Z,15.90
2019-03-29T06:48:37.203Z,16.23
2019-03-29T06:53:44.336Z,14.43
2019-03-29T06:58:51.067Z,15.10
2019-03-29T07:03:57.973Z,16.30
2019-03-29T07:09:06.931Z,15.53
2019-03-29T07:14:35.338Z,14.80
2019-03-29T07:19:42.334Z,13.40
2019-03-29T07:24:50.718Z,14.73
2019-03-29T07:29:57.998Z,14.60
2019-03-29T07:35:07.816Z,14.67
2019-03-29T07:40:14.882Z,12.93
2019-03-29T07:45:22.122Z,13.93
2019-03-29T07:50:31.667Z,12.63
2019-03-29T07:55:38.975Z,9.27
2019-03-29T08:00:46.851Z,8.43
2019-03-29T08:05:54.617Z,7.17
2019-03-29T08:11:02.321Z,6.63
2019-03-29T08:16:09.000Z,5.63
2019-03-29T08:21:15.078Z,5.40
2019-03-29T08:26:22.332Z,4.73
2019-03-29T08:31:30.098Z,2.90
2019-03-29T08:36:36.853Z,2.57
2019-03-29T08:41:42.884Z,3.30
2019-03-29T08:46:49.742Z,1.70
2019-03-29T08:51:56.220Z,1.73
2019-03-29T08:57:02.201Z,1.60
2019-03-29T09:02:09.147Z,1.93
2019-03-29T09:07:15.168Z,2.10
2019-03-29T09:12:22.383Z,1.93
2019-03-29T09:17:30.347Z,2.00
2019-03-29T09:22:38.459Z,1.93
2019-03-29T09:27:44.497Z,2.20
2019-03-29T09:32:51.423Z,1.90
2019-03-29T09:37:58.742Z,1.60
2019-03-29T09:43:08.016Z,2.17
2019-03-29T09:48:15.512Z,1.90
2019-03-29T09:53:23.350Z,2.67
2019-03-29T09:58:30.252Z,3.30
2019-03-29T10:03:36.243Z,2.70
2019-03-29T10:08:43.282Z,3.00
2019-03-29T10:13:51.000Z,2.80
2019-03-29T10:18:56.970Z,2.70
2019-03-29T10:24:03.874Z,3.43
2019-03-29T10:29:10.072Z,3.40
2019-03-29T10:34:17.172Z,3.33
2019-03-29T10:39:26.320Z,3.30
2019-03-29T10:44:33.189Z,3.67
2019-03-29T10:49:40.300Z,4.20
2019-03-29T10:54:49.862Z,3.43
2019-03-29T10:59:55.787Z,4.43
2019-03-29T11:05:04.681Z,4.00
2019-03-29T11:10:15.554Z,3.87
2019-03-29T11:15:22.748Z,3.80
2019-03-29T11:20:28.708Z,4.40
2019-03-29T11:25:34.677Z,5.20
2019-03-29T11:30:42.983Z,4.13
2019-03-29T11:35:49.306Z,3.90
2019-03-29T11:40:56.502Z,4.57
2019-03-29T11:46:03.382Z,4.20
2019-03-29T11:51:19.338Z,4.20
2019-03-29T11:56:18.879Z,3.80
2019-03-29T12:01:24.845Z,4.20
2019-03-29T12:06:30.820Z,5.27
2019-03-29T12:11:36.918Z,4.93
2019-03-29T12:16:43.811Z,4.00
2019-03-29T12:21:50.696Z,4.67
2019-03-29T12:26:57.519Z,4.40
2019-03-29T12:32:04.073Z,4.97
2019-03-29T12:37:10.674Z,5.20
2019-03-29T12:42:17.234Z,4.40
2019-03-29T12:47:23.206Z,4.80
2019-03-29T12:52:29.835Z,4.53
2019-03-29T12:57:38.774Z,4.80
2019-03-29T13:02:43.465Z,5.10
2019-03-29T13:07:53.190Z,5.33
2019-03-29T13:13:00.687Z,5.57
2019-03-29T13:18:07.662Z,5.00
2019-03-29T13:23:13.742Z,5.53
2019-03-29T13:28:20.220Z,6.30
2019-03-29T13:33:28.070Z,5.63
2019-03-29T13:38:34.015Z,6.33
2019-03-29T13:43:41.073Z,6.23
2019-03-29T13:48:47.888Z,6.10
2019-03-29T13:53:53.880Z,6.20
2019-03-29T13:59:00.733Z,6.20
2019-03-29T14:04:07.410Z,7.10
2019-03-29T14:09:14.330Z,6.90
2019-03-29T14:14:20.307Z,7.17
2019-03-29T14:19:27.270Z,6.40
2019-03-29T14:24:33.198Z,6.33
2019-03-29T14:29:39.752Z,8.00
2019-03-29T14:34:45.753Z,6.70
2019-03-29T14:39:52.334Z,7.13
2019-03-29T14:44:58.327Z,6.40
2019-03-29T14:50:09.594Z,6.87
2019-03-29T14:55:16.290Z,7.03
2019-03-29T15:00:44.207Z,7.53
2019-03-29T15:05:50.549Z,7.47
2019-03-29T15:10:57.058Z,6.73
2019-03-29T15:16:03.786Z,6.77
2019-03-29T15:21:12.110Z,7.00
2019-03-29T15:26:18.339Z,7.30
2019-03-29T15:31:25.074Z,6.80
2019-03-29T15:36:31.120Z,6.97
2019-03-29T15:41:37.148Z,6.60
2019-03-29T15:46:43.925Z,7.67
2019-03-29T15:51:49.876Z,6.80
2019-03-29T15:56:56.404Z,6.43
2019-03-29T16:02:02.412Z,6.90
2019-03-29T16:07:08.415Z,6.43
2019-03-29T16:12:14.936Z,6.40
2019-03-29T16:17:22.935Z,6.70
2019-03-29T16:22:29.745Z,7.00
2019-03-29T16:27:37.878Z,6.43
2019-03-29T16:32:44.837Z,6.97
2019-03-29T16:37:57.348Z,6.70
2019-03-29T16:43:00.573Z,6.70
2019-03-29T16:48:07.049Z,7.03
2019-03-29T16:53:13.899Z,26.53
2019-03-29T16:58:20.463Z,8.03
2019-03-29T17:03:28.264Z,9.17
2019-03-29T17:08:34.267Z,9.00
2019-03-29T17:13:40.338Z,54.10
2019-03-29T17:18:47.150Z,10.60
2019-03-29T17:23:53.201Z,9.53
2019-03-29T17:29:01.005Z,10.07
2019-03-29T17:34:07.926Z,10.77
2019-03-29T17:39:14.777Z,9.37
2019-03-29T17:44:21.720Z,9.40
2019-03-29T17:49:28.520Z,9.27
2019-03-29T17:54:34.482Z,9.40
2019-03-29T17:59:42.350Z,10.40
2019-03-29T18:04:50.670Z,10.60
2019-03-29T18:09:57.879Z,10.50
2019-03-29T18:15:07.230Z,10.53
2019-03-29T18:20:16.452Z,11.97
2019-03-29T18:25:23.281Z,12.30
2019-03-29T18:30:41.393Z,15.00
2019-03-29T18:35:48.851Z,20.63
2019-03-29T18:40:57.320Z,23.83
2019-03-29T18:46:03.996Z,17.03
2019-03-29T18:51:11.271Z,17.27
2019-03-29T18:56:18.635Z,17.77
2019-03-29T19:01:26.426Z,18.73
2019-03-29T19:06:35.537Z,20.80
2019-03-29T19:11:43.802Z,20.00
2019-03-29T19:16:58.825Z,20.20
2019-03-29T19:22:01.877Z,21.10
2019-03-29T19:27:09.138Z,21.30
2019-03-29T19:32:16.041Z,23.73
2019-03-29T19:37:23.507Z,22.13
2019-03-29T19:42:41.967Z,22.10
2019-03-29T19:48:11.005Z,21.17
2019-03-29T19:53:17.474Z,21.43
2019-03-29T19:58:24.766Z,23.47
2019-03-29T20:03:31.442Z,23.63
2019-03-29T20:08:39.204Z,22.87
2019-03-29T20:13:46.419Z,23.20
2019-03-29T20:18:54.188Z,22.43
2019-03-29T20:24:01.577Z,21.10
2019-03-29T20:29:10.054Z,20.57
2019-03-29T20:34:18.885Z,19.90
2019-03-29T20:39:48.171Z,19.47
2019-03-29T20:44:57.170Z,21.53
2019-03-29T20:50:05.076Z,22.50
2019-03-29T20:55:12.668Z,22.73
2019-03-29T21:00:21.961Z,22.63
2019-03-29T21:05:50.717Z,21.17
2019-03-29T21:10:58.545Z,21.80
2019-03-29T21:16:07.124Z,23.37
2019-03-29T21:21:15.274Z,22.70
2019-03-29T21:26:24.355Z,21.30
2019-03-29T21:31:30.774Z,21.03
2019-03-29T21:36:39.789Z,24.00
2019-03-29T21:41:47.492Z,24.47
2019-03-29T21:46:55.670Z,25.53
2019-03-29T21:52:04.204Z,26.67
2019-03-29T21:57:12.273Z,25.93
2019-03-29T22:02:21.585Z,24.47
2019-03-29T22:07:29.682Z,23.87
2019-03-29T22:12:37.959Z,24.07
2019-03-29T22:17:47.372Z,23.27
2019-03-29T22:22:55.377Z,23.70
2019-03-29T22:28:02.200Z,24.07
2019-03-29T22:33:09.030Z,23.50
2019-03-29T22:38:16.942Z,23.53
2019-03-29T22:43:23.803Z,23.63
2019-03-29T22:48:31.126Z,22.53
2019-03-29T22:53:38.325Z,22.23
2019-03-29T22:58:46.041Z,22.50
2019-03-29T23:03:54.673Z,22.07
2019-03-29T23:09:03.721Z,23.40
2019-03-29T23:14:10.851Z,22.53
2019-03-29T23:19:17.700Z,23.40
2019-03-29T23:29:53.506Z,23.57
2019-03-29T23:35:01.351Z,22.13
2019-03-29T23:40:08.335Z,22.40
2019-03-29T23:45:14.508Z,24.67
2019-03-29T23:50:22.340Z,22.43
2019-03-29T23:55:29.415Z,22.27
